Wetterdaten: Woche 20.12.04 - 26.12.04 (KW52)
Datum Zeit Temperatur Luftfeuchte Luftdruck Niederschlag Windrichtung Taupunkt Windchill Wind
20.12.2004 00:00 -4,8 C 91 % 1014 hPa 0,0 l/m N -6,1 C -4,8 C 0,0 km/h (0 Bft)
20.12.2004 01:00 -5,4 C 92 % 1014 hPa 0,0 l/m N -6,4 C -5,4 C 0,0 km/h (0 Bft)
20.12.2004 02:00 -5,8 C 93 % 1015 hPa 0,0 l/m N -6,8 C -5,8 C 0,0 km/h (0 Bft)
20.12.2004 03:00 -6,4 C 94 % 1016 hPa 0,0 l/m N -7,3 C -6,4 C 0,0 km/h (0 Bft)
20.12.2004 04:00 -6,1 C 97 % 1016 hPa 0,0 l/m NW -6,5 C -7,0 C 3,1 km/h (1 Bft)
20.12.2004 05:00 -5,9 C 97 % 1017 hPa 0,0 l/m N-NW -6,3 C -7,2 C 8,4 km/h (2 Bft)
20.12.2004 06:00 -6,3 C 96 % 1017 hPa 0,0 l/m N-NW -6,8 C -7,0 C 6,8 km/h (2 Bft)
20.12.2004 07:00 -7,0 C 95 % 1017 hPa 0,0 l/m W-NW -7,6 C -7,0 C 2,7 km/h (1 Bft)
20.12.2004 08:00 -7,1 C 95 % 1018 hPa 0,0 l/m N-NW -7,7 C -7,2 C 5,4 km/h (1 Bft)
20.12.2004 09:00 -6,9 C 95 % 1018 hPa 0,0 l/m W-NW -7,6 C -7,5 C 7,2 km/h (2 Bft)
20.12.2004 10:00 -6,6 C 92 % 1018 hPa 0,0 l/m W-NW -7,6 C -9,3 C 9,9 km/h (2 Bft)
20.12.2004 11:00 -6,1 C 90 % 1018 hPa 0,0 l/m W-NW -7,5 C -8,7 C 9,4 km/h (2 Bft)
20.12.2004 12:00 -4,6 C 82 % 1018 hPa 0,0 l/m W-NW -7,2 C -7,3 C 10,1 km/h (2 Bft)
20.12.2004 13:00 -2,6 C 69 % 1017 hPa 0,0 l/m W-NW -7,5 C -5,3 C 10,6 km/h (2 Bft)
20.12.2004 14:00 -2,5 C 68 % 1017 hPa 0,0 l/m W-NW -7,5 C -7,4 C 13,1 km/h (3 Bft)
20.12.2004 15:00 -3,8 C 74 % 1017 hPa 0,0 l/m NW -7,7 C -7,7 C 12,1 km/h (2 Bft)
20.12.2004 16:00 -4,8 C 74 % 1017 hPa 0,0 l/m N -8,7 C -9,6 C 11,9 km/h (2 Bft)
20.12.2004 17:00 -5,8 C 74 % 1017 hPa 0,0 l/m W-NW -9,7 C -7,8 C 8,2 km/h (2 Bft)
20.12.2004 18:00 -6,9 C 78 % 1018 hPa 0,0 l/m W-NW -10,1 C -9,1 C 8,4 km/h (2 Bft)
20.12.2004 19:00 -8,4 C 81 % 1018 hPa 0,0 l/m W-SW -11,0 C -11,6 C 9,7 km/h (2 Bft)
20.12.2004 20:00 -9,4 C 84 % 1018 hPa 0,0 l/m W-SW -11,5 C -11,8 C 8,8 km/h (2 Bft)
20.12.2004 21:00 -10,0 C 86 % 1018 hPa 0,0 l/m W -11,8 C -10,7 C 3,6 km/h (1 Bft)
20.12.2004 22:00 -11,0 C 87 % 1019 hPa 0,0 l/m N -12,7 C -11,0 C 0,0 km/h (0 Bft)
20.12.2004 23:00 -11,0 C 87 % 1019 hPa 0,0 l/m N -12,7 C -11,0 C 0,0 km/h (0 Bft)
21.12.2004 00:00 -10,2 C 87 % 1019 hPa 0,0 l/m N -11,9 C -10,2 C 0,0 km/h (0 Bft)
21.12.2004 01:00 -9,6 C 89 % 1019 hPa 0,0 l/m N -11,1 C -9,6 C 0,0 km/h (0 Bft)
21.12.2004 02:00 -9,0 C 90 % 1019 hPa 0,0 l/m N -10,3 C -9,0 C 0,0 km/h (0 Bft)
21.12.2004 03:00 -8,2 C 91 % 1019 hPa 0,0 l/m N -9,5 C -8,2 C 0,0 km/h (0 Bft)
21.12.2004 04:00 -7,6 C 91 % 1020 hPa 0,0 l/m N -8,8 C -7,6 C 0,0 km/h (0 Bft)
21.12.2004 05:00 -7,6 C 91 % 1020 hPa 0,0 l/m N -8,8 C -7,6 C 0,0 km/h (0 Bft)
21.12.2004 06:00 -7,2 C 91 % 1020 hPa 0,0 l/m N -8,4 C -7,2 C 0,0 km/h (0 Bft)
21.12.2004 07:00 -6,7 C 91 % 1020 hPa 0,0 l/m N -7,9 C -6,7 C 0,0 km/h (0 Bft)
21.12.2004 08:00 -6,5 C 92 % 1021 hPa 0,0 l/m N -7,6 C -6,5 C 0,0 km/h (0 Bft)
21.12.2004 09:00 -6,2 C 91 % 1021 hPa 0,0 l/m W -7,5 C -6,4 C 2,4 km/h (1 Bft)
21.12.2004 10:00 -5,5 C 87 % 1022 hPa 0,0 l/m W -7,3 C -6,0 C 3,4 km/h (1 Bft)
21.12.2004 11:00 -5,0 C 85 % 1022 hPa 0,0 l/m W -7,1 C -5,0 C 0,5 km/h (0 Bft)
21.12.2004 12:00 -4,1 C 86 % 1022 hPa 1,0 l/m N -6,2 C -4,1 C 0,0 km/h (0 Bft)
21.12.2004 13:00 -3,6 C 85 % 1022 hPa 0,0 l/m W -5,8 C -3,6 C 0,3 km/h (0 Bft)
21.12.2004 14:00 -3,4 C 86 % 1022 hPa 0,0 l/m SW -5,4 C -3,4 C 0,6 km/h (0 Bft)
21.12.2004 15:00 -3,4 C 87 % 1022 hPa 0,0 l/m N -5,3 C -4,1 C 2,6 km/h (1 Bft)
21.12.2004 16:00 -3,5 C 88 % 1022 hPa 0,0 l/m W-SW -5,2 C -3,6 C 1,0 km/h (0 Bft)
21.12.2004 17:00 -3,7 C 90 % 1023 hPa 0,0 l/m W -5,1 C -3,7 C 0,6 km/h (0 Bft)
21.12.2004 18:00 -3,7 C 91 % 1023 hPa 0,0 l/m N -5,0 C -3,7 C 0,0 km/h (0 Bft)
21.12.2004 19:00 -3,7 C 92 % 1023 hPa 0,0 l/m N -4,8 C -3,7 C 0,0 km/h (0 Bft)
21.12.2004 20:00 -3,9 C 93 % 1024 hPa 0,0 l/m S-SW -4,9 C -4,1 C 2,2 km/h (1 Bft)
21.12.2004 21:00 -3,9 C 93 % 1024 hPa 0,0 l/m NO -4,8 C -4,2 C 1,7 km/h (1 Bft)
21.12.2004 22:00 -3,8 C 94 % 1024 hPa 0,0 l/m N -4,6 C -3,8 C 0,0 km/h (0 Bft)
21.12.2004 23:00 -3,9 C 94 % 1024 hPa 0,0 l/m N -4,7 C -3,9 C 0,0 km/h (0 Bft)
22.12.2004 00:00 -4,0 C 95 % 1023 hPa 0,0 l/m N -4,7 C -4,0 C 0,0 km/h (0 Bft)
22.12.2004 01:00 -4,1 C 96 % 1023 hPa 0,0 l/m N -4,6 C -4,1 C 0,0 km/h (0 Bft)
22.12.2004 02:00 -3,9 C 96 % 1024 hPa 0,0 l/m SW -4,5 C -6,0 C 8,4 km/h (2 Bft)
22.12.2004 03:00 -4,9 C 95 % 1024 hPa 0,0 l/m O-SO -5,6 C -5,0 C 0,6 km/h (0 Bft)
22.12.2004 04:00 -6,3 C 94 % 1024 hPa 0,0 l/m S -7,2 C -6,7 C 1,8 km/h (1 Bft)
22.12.2004 05:00 -7,2 C 93 % 1024 hPa 0,0 l/m S -8,1 C -8,0 C 7,6 km/h (2 Bft)
22.12.2004 06:00 -8,4 C 92 % 1024 hPa 0,0 l/m S-SW -9,5 C -8,8 C 2,9 km/h (1 Bft)
22.12.2004 07:00 -8,4 C 91 % 1024 hPa 0,0 l/m O-SO -9,7 C -9,4 C 4,9 km/h (1 Bft)
22.12.2004 08:00 -7,9 C 89 % 1024 hPa 0,0 l/m N-NO -9,3 C -9,2 C 6,6 km/h (2 Bft)
22.12.2004 09:00 -8,8 C 88 % 1024 hPa 0,0 l/m NO -10,4 C -10,1 C 6,7 km/h (2 Bft)
22.12.2004 10:00 -6,7 C 92 % 1025 hPa 0,0 l/m O-SO -7,9 C -7,4 C 3,6 km/h (1 Bft)
22.12.2004 11:00 -5,2 C 84 % 1024 hPa 0,0 l/m O-SO -7,5 C -10,2 C 12,4 km/h (3 Bft)
22.12.2004 12:00 -3,7 C 68 % 1024 hPa 0,0 l/m SO -8,7 C -12,2 C 18,8 km/h (3 Bft)
22.12.2004 13:00 -2,8 C 66 % 1023 hPa 0,0 l/m S -8,3 C -8,5 C 14,7 km/h (3 Bft)
22.12.2004 14:00 -3,0 C 71 % 1022 hPa 0,0 l/m S-SO -7,5 C -8,3 C 13,8 km/h (3 Bft)
22.12.2004 15:00 -3,6 C 72 % 1022 hPa 0,0 l/m SO -8,0 C -7,1 C 11,2 km/h (2 Bft)
22.12.2004 16:00 -4,0 C 76 % 1021 hPa 0,0 l/m SO -7,6 C -5,6 C 7,0 km/h (2 Bft)
22.12.2004 17:00 -4,3 C 80 % 1021 hPa 0,0 l/m O-SO -7,2 C -5,8 C 6,0 km/h (2 Bft)
22.12.2004 18:00 -4,0 C 85 % 1021 hPa 0,0 l/m SO -6,1 C -9,0 C 13,0 km/h (3 Bft)
22.12.2004 19:00 -3,5 C 86 % 1021 hPa 0,0 l/m SO -5,5 C -9,7 C 14,4 km/h (3 Bft)
22.12.2004 20:00 -3,0 C 84 % 1021 hPa 0,0 l/m SO -5,4 C -10,5 C 17,0 km/h (3 Bft)
22.12.2004 21:00 -2,7 C 81 % 1020 hPa 0,0 l/m SO -5,4 C -11,4 C 19,0 km/h (3 Bft)
22.12.2004 22:00 -2,5 C 81 % 1020 hPa 0,0 l/m SO -5,3 C -10,8 C 18,9 km/h (3 Bft)
22.12.2004 23:00 -2,1 C 79 % 1020 hPa 0,0 l/m SO -5,2 C -9,9 C 18,3 km/h (3 Bft)
23.12.2004 00:00 -1,5 C 80 % 1019 hPa 0,0 l/m SO -4,5 C -9,2 C 18,2 km/h (3 Bft)
23.12.2004 01:00 -1,1 C 81 % 1018 hPa 0,0 l/m SO -3,9 C -7,5 C 16,3 km/h (3 Bft)
23.12.2004 02:00 -0,7 C 81 % 1018 hPa 0,0 l/m SO -3,5 C -8,1 C 18,4 km/h (3 Bft)
23.12.2004 03:00 0,2 C 79 % 1018 hPa 0,0 l/m SO -3,0 C -9,4 C 24,2 km/h (4 Bft)
23.12.2004 04:00 0,1 C 81 % 1018 hPa 0,0 l/m SO -2,8 C -7,1 C 17,2 km/h (3 Bft)
23.12.2004 05:00 -0,2 C 83 % 1018 hPa 0,0 l/m SO -2,8 C -6,8 C 15,9 km/h (3 Bft)
23.12.2004 06:00 -0,0 C 85 % 1017 hPa 0,0 l/m SO -2,2 C -7,7 C 18,6 km/h (3 Bft)
23.12.2004 07:00 0,6 C 83 % 1017 hPa 0,0 l/m SO -2,1 C -6,1 C 17,5 km/h (3 Bft)
23.12.2004 08:00 0,8 C 83 % 1018 hPa 0,0 l/m SO -1,6 C -5,6 C 16,3 km/h (3 Bft)
23.12.2004 09:00 1,2 C 83 % 1017 hPa 0,0 l/m SO -1,4 C -6,9 C 20,9 km/h (4 Bft)
23.12.2004 10:00 1,7 C 81 % 1017 hPa 0,0 l/m SO -1,1 C -4,2 C 15,9 km/h (3 Bft)
23.12.2004 11:00 2,4 C 82 % 1016 hPa 0,0 l/m SO -0,4 C -4,7 C 18,9 km/h (3 Bft)
23.12.2004 12:00 3,2 C 78 % 1015 hPa 0,0 l/m SO -0,2 C -5,3 C 22,2 km/h (4 Bft)
23.12.2004 13:00 3,5 C 77 % 1015 hPa 0,0 l/m S-SO -0,1 C -4,1 C 21,2 km/h (4 Bft)
23.12.2004 14:00 3,3 C 78 % 1015 hPa 0,0 l/m SO -0,2 C -4,4 C 20,8 km/h (4 Bft)
23.12.2004 15:00 3,1 C 84 % 1015 hPa 0,0 l/m SO 0,6 C -5,1 C 20,7 km/h (4 Bft)
23.12.2004 16:00 3,0 C 93 % 1015 hPa 0,0 l/m SO 2,0 C -4,6 C 19,7 km/h (3 Bft)
23.12.2004 17:00 3,8 C 98 % 1016 hPa 0,0 l/m SO 3,4 C -4,9 C 23,4 km/h (4 Bft)
23.12.2004 18:00 4,2 C 97 % 1016 hPa 0,0 l/m S-SO 3,7 C -3,8 C 22,2 km/h (4 Bft)
23.12.2004 19:00 4,2 C 96 % 1016 hPa 0,0 l/m S-SO 3,5 C -4,4 C 23,0 km/h (4 Bft)
23.12.2004 20:00 4,4 C 94 % 1016 hPa 0,0 l/m S-SO 3,5 C -3,3 C 23,1 km/h (4 Bft)
23.12.2004 21:00 4,5 C 92 % 1016 hPa 0,0 l/m S-SO 3,3 C -3,0 C 21,4 km/h (4 Bft)
23.12.2004 22:00 4,4 C 94 % 1016 hPa 0,0 l/m SO 3,5 C -3,0 C 20,4 km/h (4 Bft)
23.12.2004 23:00 4,7 C 90 % 1016 hPa 1,0 l/m SO 3,2 C -2,7 C 20,7 km/h (4 Bft)
24.12.2004 00:00 4,8 C 87 % 1016 hPa 1,0 l/m S 2,9 C -2,2 C 21,4 km/h (4 Bft)
24.12.2004 01:00 4,8 C 84 % 1015 hPa 0,0 l/m SO 2,3 C -1,7 C 18,9 km/h (3 Bft)
24.12.2004 02:00 4,9 C 82 % 1015 hPa 0,0 l/m S 2,1 C -3,1 C 24,0 km/h (4 Bft)
24.12.2004 03:00 4,9 C 80 % 1015 hPa 0,0 l/m SO 1,7 C -2,3 C 22,0 km/h (4 Bft)
24.12.2004 04:00 4,8 C 80 % 1015 hPa 0,0 l/m S 1,6 C -3,1 C 24,0 km/h (4 Bft)
24.12.2004 05:00 4,8 C 80 % 1014 hPa 0,0 l/m S-SO 1,5 C -2,5 C 21,2 km/h (4 Bft)
24.12.2004 06:00 4,7 C 79 % 1014 hPa 0,0 l/m S-SO 1,4 C -3,4 C 22,7 km/h (4 Bft)
24.12.2004 07:00 4,6 C 80 % 1014 hPa 0,0 l/m SO 1,4 C -2,7 C 21,8 km/h (4 Bft)
24.12.2004 08:00 5,0 C 77 % 1013 hPa 0,0 l/m S-SO 1,3 C -3,3 C 25,0 km/h (4 Bft)
24.12.2004 09:00 5,6 C 73 % 1014 hPa 0,0 l/m S 1,2 C -2,8 C 26,4 km/h (4 Bft)
24.12.2004 10:00 5,7 C 74 % 1014 hPa 0,0 l/m S 1,3 C -2,5 C 24,8 km/h (4 Bft)
24.12.2004 11:00 5,7 C 76 % 1014 hPa 0,0 l/m S-SO 1,7 C -2,6 C 26,3 km/h (4 Bft)
24.12.2004 12:00 6,0 C 74 % 1013 hPa 0,0 l/m S-SO 1,7 C -1,1 C 22,3 km/h (4 Bft)
24.12.2004 13:00 6,2 C 73 % 1013 hPa 0,0 l/m S-SO 1,6 C -1,5 C 22,5 km/h (4 Bft)
24.12.2004 14:00 6,4 C 71 % 1012 hPa 0,0 l/m S-SO 1,6 C -0,6 C 21,1 km/h (4 Bft)
24.12.2004 15:00 6,6 C 71 % 1012 hPa 0,0 l/m S-SO 1,6 C -0,0 C 19,2 km/h (3 Bft)
24.12.2004 16:00 6,6 C 70 % 1011 hPa 0,0 l/m S-SO 1,5 C 0,2 C 19,1 km/h (3 Bft)
24.12.2004 17:00 6,6 C 71 % 1011 hPa 0,0 l/m S-SO 1,8 C 0,4 C 17,9 km/h (3 Bft)
24.12.2004 18:00 6,5 C 73 % 1011 hPa 0,0 l/m SO 2,0 C 1,0 C 17,3 km/h (3 Bft)
24.12.2004 19:00 5,8 C 75 % 1010 hPa 0,0 l/m S-SO 1,8 C -1,1 C 19,8 km/h (3 Bft)
24.12.2004 20:00 5,8 C 74 % 1009 hPa 0,0 l/m S-SO 1,6 C -0,4 C 18,4 km/h (3 Bft)
24.12.2004 21:00 6,0 C 72 % 1009 hPa 0,0 l/m SO 1,4 C 2,1 C 14,0 km/h (3 Bft)
24.12.2004 22:00 5,8 C 70 % 1007 hPa 0,0 l/m S-SO 0,7 C 1,0 C 15,4 km/h (3 Bft)
24.12.2004 23:00 5,6 C 69 % 1006 hPa 0,0 l/m S-SO 0,4 C 0,8 C 14,9 km/h (3 Bft)
25.12.2004 00:00 5,3 C 67 % 1005 hPa 0,0 l/m SO -0,2 C 0,4 C 14,5 km/h (3 Bft)
25.12.2004 01:00 4,4 C 70 % 1003 hPa 0,0 l/m N-NO -0,6 C 2,1 C 10,3 km/h (2 Bft)
25.12.2004 02:00 3,8 C 70 % 1002 hPa 0,0 l/m SO -1,2 C 0,8 C 11,5 km/h (2 Bft)
25.12.2004 03:00 4,6 C 63 % 1001 hPa 0,0 l/m S-SO -1,9 C -1,3 C 16,6 km/h (3 Bft)
25.12.2004 04:00 3,8 C 67 % 1000 hPa 0,0 l/m SO -1,8 C 1,1 C 10,3 km/h (2 Bft)
25.12.2004 05:00 3,3 C 72 % 1000 hPa 0,0 l/m SO -1,2 C -1,3 C 13,9 km/h (3 Bft)
25.12.2004 06:00 2,7 C 75 % 1001 hPa 0,0 l/m SO -1,3 C -1,6 C 12,7 km/h (3 Bft)
25.12.2004 07:00 1,8 C 83 % 1001 hPa 0,0 l/m SO -0,8 C -2,7 C 13,0 km/h (3 Bft)
25.12.2004 08:00 2,1 C 87 % 1001 hPa 0,0 l/m SO 0,2 C -4,2 C 16,7 km/h (3 Bft)
25.12.2004 09:00 3,9 C 83 % 1002 hPa 0,0 l/m S-SO 1,3 C -1,9 C 16,2 km/h (3 Bft)
25.12.2004 10:00 5,8 C 73 % 1001 hPa 0,0 l/m SO 1,4 C 1,9 C 14,1 km/h (3 Bft)
25.12.2004 11:00 7,6 C 60 % 1001 hPa 0,0 l/m S-SO 0,3 C 3,0 C 16,0 km/h (3 Bft)
25.12.2004 12:00 9,0 C 54 % 1001 hPa 0,0 l/m S 0,2 C 3,5 C 19,9 km/h (4 Bft)
25.12.2004 13:00 9,3 C 53 % 1000 hPa 0,0 l/m S-SW 0,1 C 3,3 C 19,8 km/h (4 Bft)
25.12.2004 14:00 8,1 C 57 % 1000 hPa 0,0 l/m S 0,1 C 4,6 C 12,8 km/h (3 Bft)
25.12.2004 15:00 7,3 C 62 % 1000 hPa 0,0 l/m S 0,4 C 6,8 C 4,3 km/h (1 Bft)
25.12.2004 16:00 6,3 C 67 % 1000 hPa 0,0 l/m N 0,6 C 6,3 C 0,0 km/h (0 Bft)
25.12.2004 17:00 5,2 C 72 % 1000 hPa 0,0 l/m N 0,6 C 5,2 C 0,0 km/h (0 Bft)
25.12.2004 18:00 4,5 C 77 % 999 hPa 0,0 l/m N 0,7 C 4,5 C 0,0 km/h (0 Bft)
25.12.2004 19:00 4,2 C 81 % 1000 hPa 0,0 l/m SW 1,2 C 3,8 C 1,8 km/h (1 Bft)
25.12.2004 20:00 3,5 C 91 % 1000 hPa 1,0 l/m W 2,1 C 1,4 C 10,5 km/h (2 Bft)
25.12.2004 21:00 2,1 C 94 % 1001 hPa 1,0 l/m W 1,2 C 0,5 C 6,7 km/h (2 Bft)
25.12.2004 22:00 1,1 C 95 % 1001 hPa 0,0 l/m N 0,3 C 1,1 C 0,1 km/h (0 Bft)
25.12.2004 23:00 0,8 C 96 % 1001 hPa 0,0 l/m N 0,3 C 0,8 C 0,0 km/h (0 Bft)
26.12.2004 00:00 0,6 C 98 % 1001 hPa 0,0 l/m W 0,3 C 0,6 C 0,0 km/h (0 Bft)
26.12.2004 10:00 0,8 C 100 % 999 hPa 0,0 l/m W 0,8 C -4,7 C 14,1 km/h (3 Bft)
26.12.2004 11:00 0,8 C 100 % 999 hPa 0,0 l/m W-NW 0,8 C -3,1 C 12,3 km/h (3 Bft)
26.12.2004 12:00 0,8 C 100 % 999 hPa 0,0 l/m W-NW 0,8 C -3,2 C 12,1 km/h (2 Bft)
26.12.2004 13:00 0,9 C 100 % 999 hPa 0,0 l/m W 0,9 C -1,5 C 10,2 km/h (2 Bft)
26.12.2004 14:00 0,9 C 100 % 999 hPa 0,0 l/m W 0,9 C 0,4 C 7,0 km/h (2 Bft)
26.12.2004 15:00 0,8 C 100 % 999 hPa 0,0 l/m W 0,8 C -0,8 C 7,8 km/h (2 Bft)
26.12.2004 16:00 0,7 C 100 % 1000 hPa 0,0 l/m W 0,7 C -0,5 C 8,2 km/h (2 Bft)
26.12.2004 17:00 0,5 C 100 % 1001 hPa 0,0 l/m W 0,5 C 0,5 C 3,1 km/h (1 Bft)
26.12.2004 18:00 0,5 C 100 % 1002 hPa 0,0 l/m N 0,5 C 0,5 C 0,0 km/h (0 Bft)
26.12.2004 19:00 0,5 C 100 % 1002 hPa 0,0 l/m N 0,5 C 0,5 C 0,0 km/h (0 Bft)
26.12.2004 20:00 0,5 C 100 % 1003 hPa 0,0 l/m N 0,5 C 0,5 C 0,0 km/h (0 Bft)
26.12.2004 21:00 0,5 C 100 % 1004 hPa 0,0 l/m N 0,5 C 0,5 C 0,0 km/h (0 Bft)
26.12.2004 22:00 0,4 C 100 % 1005 hPa 0,0 l/m N 0,4 C 0,4 C 0,0 km/h (0 Bft)
26.12.2004 23:00 0,4 C 100 % 1006 hPa 0,0 l/m N 0,4 C 0,4 C 0,0 km/h (0 Bft)
Min-Datum _ 20.12.04 25.12.04 26.12.04 - - 20.12.04 22.12.04 20.12.04
_ Min-Zeit 22:42 13:06 12:57 - - 22:42 07:56 00:00
Minimum _ -11,2 C 51 % 998 hPa - - -12,9 C -17,1 C 0,0 km/h (0 Bft)
Max-Datum _ 25.12.04 26.12.04 22.12.04 21.12.04 - 23.12.04 25.12.04 24.12.04
_ Max-Zeit 12:56 10:59 10:27 12:08 - 18:37 12:54 09:16
Maximum _ 9,8 C 100 % 1025 hPa 1,0 l/m - 3,9 C 9,6 C 51,4 km/h
S (7 Bft)
Durchschnitt _ -0,6 C 84 % 1014 hPa #5,0 l/m SO -3,1 C -4,2 C 10,6 km/h (2 Bft)

Durchschnitt Minimum Temp.-1,0 C
Durchschnitt Maximum Temp.-0,2 C